sensor_id;sensor_type;location;lat;lon;timestamp;pressure;altitude;pressure_sealevel;temperature;humidity
70015;BME280;57358;51.094;6.760;2022-09-01T00:01:37;101617.69;;;15.66;80.96
70015;BME280;57358;51.094;6.760;2022-09-01T00:04:08;101702.06;;;16.17;80.48
70015;BME280;57358;51.094;6.760;2022-09-01T00:06:35;101698.75;;;16.13;79.59
70015;BME280;57358;51.094;6.760;2022-09-01T00:09:08;101697.91;;;16.12;80.41
70015;BME280;57358;51.094;6.760;2022-09-01T00:11:37;101698.19;;;16.08;80.73
70015;BME280;57358;51.094;6.760;2022-09-01T00:14:05;101682.06;;;15.97;80.71
70015;BME280;57358;51.094;6.760;2022-09-01T00:16:53;101695.91;;;16.02;80.50
70015;BME280;57358;51.094;6.760;2022-09-01T00:19:20;101695.91;;;16.02;80.96
70015;BME280;57358;51.094;6.760;2022-09-01T00:21:47;101635.69;;;15.59;80.62
70015;BME280;57358;51.094;6.760;2022-09-01T00:24:16;101632.94;;;15.46;82.22
70015;BME280;57358;51.094;6.760;2022-09-01T00:26:43;101606.03;;;15.24;83.13
70015;BME280;57358;51.094;6.760;2022-09-01T00:29:10;101690.25;;;15.62;83.51
70015;BME280;57358;51.094;6.760;2022-09-01T00:31:37;101697.72;;;15.69;83.82
70015;BME280;57358;51.094;6.760;2022-09-01T00:34:04;101697.06;;;15.66;84.81
70015;BME280;57358;51.094;6.760;2022-09-01T00:36:30;101583.28;;;14.89;85.38
70015;BME280;57358;51.094;6.760;2022-09-01T00:38:57;101648.31;;;15.24;86.50
70015;BME280;57358;51.094;6.760;2022-09-01T00:41:26;101708.69;;;15.47;86.59
70015;BME280;57358;51.094;6.760;2022-09-01T00:43:56;101700.09;;;15.44;86.64
70015;BME280;57358;51.094;6.760;2022-09-01T00:46:29;101705.53;;;15.41;87.38
70015;BME280;57358;51.094;6.760;2022-09-01T00:49:00;101706.75;;;15.35;87.80
70015;BME280;57358;51.094;6.760;2022-09-01T00:51:29;101700.75;;;15.31;87.14
70015;BME280;57358;51.094;6.760;2022-09-01T00:53:57;101697.47;;;15.28;87.09
70015;BME280;57358;51.094;6.760;2022-09-01T00:56:25;101678.75;;;15.15;88.05
70015;BME280;57358;51.094;6.760;2022-09-01T00:58:52;101675.88;;;15.20;87.48
70015;BME280;57358;51.094;6.760;2022-09-01T01:01:19;101698.03;;;15.33;87.34
70015;BME280;57358;51.094;6.760;2022-09-01T01:03:46;101691.81;;;15.34;87.63
70015;BME280;57358;51.094;6.760;2022-09-01T01:06:14;101660.44;;;15.12;87.54
70015;BME280;57358;51.094;6.760;2022-09-01T01:08:45;101613.38;;;14.87;87.40
70015;BME280;57358;51.094;6.760;2022-09-01T01:11:22;101593.69;;;14.76;86.82
70015;BME280;57358;51.094;6.760;2022-09-01T01:13:53;101678.25;;;15.40;86.59
70015;BME280;57358;51.094;6.760;2022-09-01T01:16:22;101508.84;;;14.33;86.54
70015;BME280;57358;51.094;6.760;2022-09-01T01:18:50;101692.25;;;15.42;86.75
70015;BME280;57358;51.094;6.760;2022-09-01T01:21:32;101678.06;;;15.43;85.90
70015;BME280;57358;51.094;6.760;2022-09-01T01:26:48;101600.16;;;14.87;85.97
70015;BME280;57358;51.094;6.760;2022-09-01T01:29:15;101624.00;;;15.01;85.66
70015;BME280;57358;51.094;6.760;2022-09-01T01:31:43;101677.41;;;15.40;86.52
70015;BME280;57358;51.094;6.760;2022-09-01T01:34:09;101655.31;;;15.25;86.62
70015;BME280;57358;51.094;6.760;2022-09-01T01:36:37;101692.41;;;15.39;86.70
70015;BME280;57358;51.094;6.760;2022-09-01T01:39:14;101663.25;;;15.25;87.09
70015;BME280;57358;51.094;6.760;2022-09-01T01:41:42;101682.09;;;15.34;87.37
70015;BME280;57358;51.094;6.760;2022-09-01T01:44:12;101678.84;;;15.29;89.32
70015;BME280;57358;51.094;6.760;2022-09-01T01:46:41;101684.25;;;15.28;88.93
70015;BME280;57358;51.094;6.760;2022-09-01T01:49:10;101638.25;;;14.99;90.50
70015;BME280;57358;51.094;6.760;2022-09-01T01:51:47;101671.09;;;15.10;91.04
70015;BME280;57358;51.094;6.760;2022-09-01T01:54:15;101687.47;;;15.17;91.69
70015;BME280;57358;51.094;6.760;2022-09-01T01:56:44;101629.47;;;14.82;90.25
70015;BME280;57358;51.094;6.760;2022-09-01T01:59:10;101692.41;;;15.23;89.87
70015;BME280;57358;51.094;6.760;2022-09-01T02:01:42;101689.75;;;15.23;89.16
70015;BME280;57358;51.094;6.760;2022-09-01T02:04:09;101689.94;;;15.20;89.61
70015;BME280;57358;51.094;6.760;2022-09-01T02:06:37;101474.91;;;13.94;88.80
70015;BME280;57358;51.094;6.760;2022-09-01T02:09:06;101621.81;;;14.78;89.00
70015;BME280;57358;51.094;6.760;2022-09-01T02:11:33;101613.19;;;14.74;89.65
70015;BME280;57358;51.094;6.760;2022-09-01T02:14:05;101661.13;;;15.00;90.12
70015;BME280;57358;51.094;6.760;2022-09-01T02:16:33;101683.41;;;15.11;90.32
70015;BME280;57358;51.094;6.760;2022-09-01T02:19:02;101529.97;;;14.18;90.17
70015;BME280;57358;51.094;6.760;2022-09-01T02:21:28;101607.63;;;14.63;89.88
70015;BME280;57358;51.094;6.760;2022-09-01T02:24:00;101687.47;;;15.01;90.58
70015;BME280;57358;51.094;6.760;2022-09-01T02:26:30;101677.41;;;14.92;90.77
70015;BME280;57358;51.094;6.760;2022-09-01T02:28:59;101676.03;;;14.85;93.14
70015;BME280;57358;51.094;6.760;2022-09-01T02:31:34;101668.19;;;14.67;92.51
70015;BME280;57358;51.094;6.760;2022-09-01T02:34:05;101552.50;;;14.07;92.23
70015;BME280;57358;51.094;6.760;2022-09-01T02:36:36;101584.22;;;14.23;93.37
70015;BME280;57358;51.094;6.760;2022-09-01T02:39:14;101679.69;;;14.82;92.88
70015;BME280;57358;51.094;6.760;2022-09-01T02:41:41;101576.38;;;14.22;92.66
70015;BME280;57358;51.094;6.760;2022-09-01T02:44:08;101661.53;;;14.76;92.22
70015;BME280;57358;51.094;6.760;2022-09-01T02:46:44;101674.91;;;14.89;92.37
70015;BME280;57358;51.094;6.760;2022-09-01T02:49:17;101674.00;;;14.90;91.94
70015;BME280;57358;51.094;6.760;2022-09-01T02:51:48;101580.81;;;14.37;91.09
70015;BME280;57358;51.094;6.760;2022-09-01T02:54:15;101633.72;;;14.69;90.96
70015;BME280;57358;51.094;6.760;2022-09-01T02:56:45;101668.03;;;14.86;91.03
70015;BME280;57358;51.094;6.760;2022-09-01T02:59:18;101656.16;;;14.78;92.32
70015;BME280;57358;51.094;6.760;2022-09-01T03:01:48;101674.66;;;14.78;92.64
70015;BME280;57358;51.094;6.760;2022-09-01T03:04:16;101673.97;;;14.74;92.62
70015;BME280;57358;51.094;6.760;2022-09-01T03:06:43;101667.31;;;14.67;93.89
70015;BME280;57358;51.094;6.760;2022-09-01T03:09:13;101668.31;;;14.64;94.03
70015;BME280;57358;51.094;6.760;2022-09-01T03:11:44;101545.78;;;13.84;94.55
70015;BME280;57358;51.094;6.760;2022-09-01T03:14:11;101646.88;;;14.53;94.54
70015;BME280;57358;51.094;6.760;2022-09-01T03:16:37;101668.94;;;14.69;94.33
70015;BME280;57358;51.094;6.760;2022-09-01T03:19:06;101603.22;;;14.30;94.53
70015;BME280;57358;51.094;6.760;2022-09-01T03:21:35;101669.72;;;14.71;94.74
70015;BME280;57358;51.094;6.760;2022-09-01T03:24:02;101653.88;;;14.54;96.75
70015;BME280;57358;51.094;6.760;2022-09-01T03:26:30;101676.09;;;14.67;97.61
70015;BME280;57358;51.094;6.760;2022-09-01T03:28:56;101666.03;;;14.74;98.02
70015;BME280;57358;51.094;6.760;2022-09-01T03:31:23;101577.56;;;14.16;96.39
70015;BME280;57358;51.094;6.760;2022-09-01T03:33:56;101667.66;;;14.76;96.05
70015;BME280;57358;51.094;6.760;2022-09-01T03:36:24;101651.63;;;14.64;96.64
70015;BME280;57358;51.094;6.760;2022-09-01T03:38:51;101640.38;;;14.60;96.92
70015;BME280;57358;51.094;6.760;2022-09-01T03:41:24;101659.59;;;14.80;98.95
70015;BME280;57358;51.094;6.760;2022-09-01T03:43:51;101659.47;;;14.81;97.78
70015;BME280;57358;51.094;6.760;2022-09-01T03:46:20;101633.97;;;14.64;97.25
70015;BME280;57358;51.094;6.760;2022-09-01T03:48:53;101624.59;;;14.59;96.91
70015;BME280;57358;51.094;6.760;2022-09-01T03:51:22;101651.28;;;14.70;97.14
70015;BME280;57358;51.094;6.760;2022-09-01T03:53:50;101655.97;;;14.65;96.62
70015;BME280;57358;51.094;6.760;2022-09-01T03:56:22;101566.75;;;13.87;99.67
70015;BME280;57358;51.094;6.760;2022-09-01T03:58:51;101653.75;;;14.40;99.96
70015;BME280;57358;51.094;6.760;2022-09-01T04:01:18;101563.56;;;13.81;100.00
70015;BME280;57358;51.094;6.760;2022-09-01T04:03:45;101558.06;;;13.68;100.00
70015;BME280;57358;51.094;6.760;2022-09-01T04:06:12;101657.19;;;14.24;100.00
70015;BME280;57358;51.094;6.760;2022-09-01T04:08:39;101571.97;;;13.71;100.00
70015;BME280;57358;51.094;6.760;2022-09-01T04:11:17;101653.16;;;14.17;99.53
70015;BME280;57358;51.094;6.760;2022-09-01T04:13:44;101565.16;;;13.67;99.35
70015;BME280;57358;51.094;6.760;2022-09-01T04:16:27;101576.38;;;13.71;99.60
70015;BME280;57358;51.094;6.760;2022-09-01T04:19:15;101642.31;;;14.06;99.57
70015;BME280;57358;51.094;6.760;2022-09-01T04:21:46;101653.34;;;14.14;99.14
70015;BME280;57358;51.094;6.760;2022-09-01T04:24:13;101475.31;;;13.01;98.59
70015;BME280;57358;51.094;6.760;2022-09-01T04:26:41;101667.00;;;14.05;98.13
70015;BME280;57358;51.094;6.760;2022-09-01T04:29:08;101573.13;;;13.48;98.18
70015;BME280;57358;51.094;6.760;2022-09-01T04:31:38;101654.34;;;13.94;98.23
70015;BME280;57358;51.094;6.760;2022-09-01T04:34:06;101657.31;;;13.88;98.12
70015;BME280;57358;51.094;6.760;2022-09-01T04:36:36;101596.84;;;13.48;98.18
70015;BME280;57358;51.094;6.760;2022-09-01T04:39:07;101658.78;;;13.76;98.91
70015;BME280;57358;51.094;6.760;2022-09-01T04:41:41;101552.59;;;13.01;99.96
70015;BME280;57358;51.094;6.760;2022-09-01T04:44:08;101657.69;;;13.63;100.00
70015;BME280;57358;51.094;6.760;2022-09-01T04:46:37;101633.16;;;13.43;100.00
70015;BME280;57358;51.094;6.760;2022-09-01T04:49:08;101659.72;;;13.57;100.00
70015;BME280;57358;51.094;6.760;2022-09-01T04:51:45;101651.94;;;13.54;100.00
70015;BME280;57358;51.094;6.760;2022-09-01T04:54:19;101661.41;;;13.59;100.00
70015;BME280;57358;51.094;6.760;2022-09-01T04:56:47;101534.16;;;12.82;100.00
70015;BME280;57358;51.094;6.760;2022-09-01T04:59:18;101610.78;;;13.33;100.00
70015;BME280;57358;51.094;6.760;2022-09-01T05:01:47;101611.97;;;13.45;100.00
70015;BME280;57358;51.094;6.760;2022-09-01T05:04:21;101659.69;;;13.75;100.00
70015;BME280;57358;51.094;6.760;2022-09-01T05:06:51;101660.19;;;13.83;100.00
70015;BME280;57358;51.094;6.760;2022-09-01T05:09:21;101504.06;;;13.05;100.00
70015;BME280;57358;51.094;6.760;2022-09-01T05:11:47;101661.13;;;14.00;100.00
70015;BME280;57358;51.094;6.760;2022-09-01T05:14:15;101604.63;;;13.69;100.00
70015;BME280;57358;51.094;6.760;2022-09-01T05:16:46;101652.72;;;14.09;99.93
70015;BME280;57358;51.094;6.760;2022-09-01T05:19:17;101660.31;;;14.15;100.00
70015;BME280;57358;51.094;6.760;2022-09-01T05:21:46;101663.31;;;14.25;99.31
70015;BME280;57358;51.094;6.760;2022-09-01T05:24:15;101655.00;;;14.32;98.11
70015;BME280;57358;51.094;6.760;2022-09-01T05:26:43;101557.19;;;13.85;97.72
70015;BME280;57358;51.094;6.760;2022-09-01T05:29:12;101651.22;;;14.54;97.47
70015;BME280;57358;51.094;6.760;2022-09-01T05:31:45;101649.84;;;14.64;96.87
70015;BME280;57358;51.094;6.760;2022-09-01T05:34:15;101635.59;;;14.67;96.14
70015;BME280;57358;51.094;6.760;2022-09-01T05:36:47;101629.97;;;14.73;94.66
70015;BME280;57358;51.094;6.760;2022-09-01T05:39:16;101664.97;;;14.94;94.31
70015;BME280;57358;51.094;6.760;2022-09-01T05:41:42;101654.03;;;15.00;94.19
70015;BME280;57358;51.094;6.760;2022-09-01T05:44:09;101652.84;;;15.06;93.48
70015;BME280;57358;51.094;6.760;2022-09-01T05:46:37;101648.91;;;15.29;92.33
70015;BME280;57358;51.094;6.760;2022-09-01T05:49:05;101643.22;;;15.51;90.86
70015;BME280;57358;51.094;6.760;2022-09-01T05:51:33;101559.91;;;15.13;90.38
70015;BME280;57358;51.094;6.760;2022-09-01T05:54:20;101653.09;;;15.79;89.12
70015;BME280;57358;51.094;6.760;2022-09-01T05:56:48;101552.53;;;15.19;88.06
70015;BME280;57358;51.094;6.760;2022-09-01T05:59:15;101650.34;;;15.81;89.08
70015;BME280;57358;51.094;6.760;2022-09-01T06:01:51;101654.59;;;15.83;89.03
70015;BME280;57358;51.094;6.760;2022-09-01T06:04:18;101566.75;;;15.32;89.14
70015;BME280;57358;51.094;6.760;2022-09-01T06:06:47;101646.50;;;15.86;89.53
70015;BME280;57358;51.094;6.760;2022-09-01T06:09:36;101648.78;;;15.92;88.92
70015;BME280;57358;51.094;6.760;2022-09-01T06:12:04;101603.41;;;15.68;88.72
70015;BME280;57358;51.094;6.760;2022-09-01T06:14:30;101461.00;;;15.02;89.13
70015;BME280;57358;51.094;6.760;2022-09-01T06:16:57;101555.31;;;15.62;88.03
70015;BME280;57358;51.094;6.760;2022-09-01T06:19:24;101637.00;;;16.27;88.00
70015;BME280;57358;51.094;6.760;2022-09-01T06:21:50;101508.25;;;15.67;84.20
70015;BME280;57358;51.094;6.760;2022-09-01T06:24:17;101605.97;;;16.43;82.39
70015;BME280;57358;51.094;6.760;2022-09-01T06:26:43;101589.69;;;16.49;80.54
70015;BME280;57358;51.094;6.760;2022-09-01T06:29:11;101581.91;;;16.61;79.46
70015;BME280;57358;51.094;6.760;2022-09-01T06:31:41;101634.38;;;17.11;78.02
70015;BME280;57358;51.094;6.760;2022-09-01T06:34:10;101562.38;;;16.90;77.64
70015;BME280;57358;51.094;6.760;2022-09-01T06:36:44;101630.88;;;17.38;74.89
70015;BME280;57358;51.094;6.760;2022-09-01T06:39:13;101620.66;;;17.32;74.54
70015;BME280;57358;51.094;6.760;2022-09-01T06:41:46;101560.50;;;17.05;74.29
70015;BME280;57358;51.094;6.760;2022-09-01T06:44:14;101541.50;;;16.99;73.50
70015;BME280;57358;51.094;6.760;2022-09-01T06:46:41;101569.91;;;17.24;73.53
70015;BME280;57358;51.094;6.760;2022-09-01T06:49:07;101623.94;;;17.63;73.55
70015;BME280;57358;51.094;6.760;2022-09-01T06:51:37;101637.06;;;17.91;72.43
70015;BME280;57358;51.094;6.760;2022-09-01T06:54:03;101486.97;;;16.94;72.00
70015;BME280;57358;51.094;6.760;2022-09-01T06:56:37;101639.28;;;17.98;70.85
70015;BME280;57358;51.094;6.760;2022-09-01T06:59:27;101589.09;;;17.67;71.15
70015;BME280;57358;51.094;6.760;2022-09-01T07:02:00;101642.41;;;18.17;70.46
70015;BME280;57358;51.094;6.760;2022-09-01T07:04:48;101639.53;;;18.33;70.07
70015;BME280;57358;51.094;6.760;2022-09-01T07:07:15;101636.97;;;18.44;70.64
70015;BME280;57358;51.094;6.760;2022-09-01T07:10:03;101525.94;;;17.85;69.56
70015;BME280;57358;51.094;6.760;2022-09-01T07:12:43;101568.09;;;18.28;69.95
70015;BME280;57358;51.094;6.760;2022-09-01T07:15:31;101593.00;;;18.64;68.06
70015;BME280;57358;51.094;6.760;2022-09-01T07:18:21;101623.00;;;19.03;67.48
70015;BME280;57358;51.094;6.760;2022-09-01T07:20:51;101645.72;;;19.20;65.88
70015;BME280;57358;51.094;6.760;2022-09-01T07:23:38;101635.25;;;19.30;65.89
70015;BME280;57358;51.094;6.760;2022-09-01T07:26:25;101633.25;;;19.45;65.63
70015;BME280;57358;51.094;6.760;2022-09-01T07:29:11;101601.44;;;19.43;64.73
70015;BME280;57358;51.094;6.760;2022-09-01T07:31:40;101526.16;;;19.06;65.51
70015;BME280;57358;51.094;6.760;2022-09-01T07:34:15;101599.56;;;19.68;63.09
70015;BME280;57358;51.094;6.760;2022-09-01T07:37:02;101627.09;;;19.80;63.17
70015;BME280;57358;51.094;6.760;2022-09-01T07:39:48;101556.28;;;19.42;62.46
70015;BME280;57358;51.094;6.760;2022-09-01T07:42:18;101622.28;;;19.85;62.49
70015;BME280;57358;51.094;6.760;2022-09-01T07:45:08;101501.56;;;19.26;64.66
70015;BME280;57358;51.094;6.760;2022-09-01T07:47:52;101604.38;;;19.98;61.67
70015;BME280;57358;51.094;6.760;2022-09-01T07:50:20;101559.94;;;19.99;62.77
70015;BME280;57358;51.094;6.760;2022-09-01T07:53:05;101616.25;;;20.50;61.98
70015;BME280;57358;51.094;6.760;2022-09-01T07:55:33;101611.44;;;20.67;61.65
70015;BME280;57358;51.094;6.760;2022-09-01T07:58:00;101471.75;;;19.90;60.28
70015;BME280;57358;51.094;6.760;2022-09-01T08:00:26;101615.03;;;20.88;59.87
70015;BME280;57358;51.094;6.760;2022-09-01T08:02:57;101608.34;;;20.94;59.34
70015;BME280;57358;51.094;6.760;2022-09-01T08:05:23;101519.69;;;20.47;59.65
70015;BME280;57358;51.094;6.760;2022-09-01T08:07:52;101533.88;;;20.59;56.76
70015;BME280;57358;51.094;6.760;2022-09-01T08:10:19;101627.25;;;21.02;57.27
70015;BME280;57358;51.094;6.760;2022-09-01T08:12:46;101624.06;;;21.08;57.51
70015;BME280;57358;51.094;6.760;2022-09-01T08:15:22;101525.50;;;20.63;56.53
70015;BME280;57358;51.094;6.760;2022-09-01T08:18:09;101484.41;;;20.43;55.89
70015;BME280;57358;51.094;6.760;2022-09-01T08:20:41;101613.25;;;21.21;56.42
70015;BME280;57358;51.094;6.760;2022-09-01T08:23:13;101572.84;;;21.15;55.42
70015;BME280;57358;51.094;6.760;2022-09-01T08:25:43;101613.66;;;21.49;54.93
70015;BME280;57358;51.094;6.760;2022-09-01T08:28:11;101530.84;;;20.96;53.91
70015;BME280;57358;51.094;6.760;2022-09-01T08:30:40;101605.25;;;21.54;53.92
70015;BME280;57358;51.094;6.760;2022-09-01T08:33:17;101592.59;;;21.56;54.28
70015;BME280;57358;51.094;6.760;2022-09-01T08:35:46;101642.00;;;21.82;52.10
70015;BME280;57358;51.094;6.760;2022-09-01T08:38:13;101613.94;;;21.67;52.62
70015;BME280;57358;51.094;6.760;2022-09-01T08:40:41;101562.59;;;21.31;51.87
70015;BME280;57358;51.094;6.760;2022-09-01T08:45:50;101609.06;;;22.03;50.71
70015;BME280;57358;51.094;6.760;2022-09-01T08:48:49;101612.66;;;22.23;48.22
70015;BME280;57358;51.094;6.760;2022-09-01T08:51:49;101571.22;;;22.28;46.51
70015;BME280;57358;51.094;6.760;2022-09-01T08:57:44;101567.38;;;22.21;45.76
70015;BME280;57358;51.094;6.760;2022-09-01T09:00:14;101605.31;;;22.36;43.00
70015;BME280;57358;51.094;6.760;2022-09-01T09:16:00;101616.03;;;22.96;38.51
70015;BME280;57358;51.094;6.760;2022-09-01T09:18:40;101611.75;;;22.74;39.15
70015;BME280;57358;51.094;6.760;2022-09-01T09:21:26;101596.22;;;23.28;39.40
70015;BME280;57358;51.094;6.760;2022-09-01T09:26:55;101505.16;;;23.08;39.65
70015;BME280;57358;51.094;6.760;2022-09-01T09:29:24;101580.97;;;23.19;40.79
70015;BME280;57358;51.094;6.760;2022-09-01T09:32:07;101595.66;;;23.54;39.56
70015;BME280;57358;51.094;6.760;2022-09-01T09:34:48;101476.28;;;23.22;40.11
70015;BME280;57358;51.094;6.760;2022-09-01T09:40:18;101592.53;;;23.78;39.23
70015;BME280;57358;51.094;6.760;2022-09-01T09:45:22;101583.63;;;23.77;39.42
70015;BME280;57358;51.094;6.760;2022-09-01T09:47:49;101547.91;;;23.86;38.59
70015;BME280;57358;51.094;6.760;2022-09-01T09:50:26;101465.88;;;23.56;37.63
70015;BME280;57358;51.094;6.760;2022-09-01T09:53:34;101568.72;;;24.40;38.10
70015;BME280;57358;51.094;6.760;2022-09-01T09:56:22;101572.34;;;24.48;36.58
70015;BME280;57358;51.094;6.760;2022-09-01T09:58:51;101575.75;;;24.41;36.70
70015;BME280;57358;51.094;6.760;2022-09-01T10:03:51;101563.81;;;24.63;36.99
70015;BME280;57358;51.094;6.760;2022-09-01T10:06:31;101507.00;;;24.40;37.26
70015;BME280;57358;51.094;6.760;2022-09-01T10:09:00;101513.22;;;24.13;37.28
70015;BME280;57358;51.094;6.760;2022-09-01T10:14:04;101557.06;;;24.49;36.13
70015;BME280;57358;51.094;6.760;2022-09-01T10:16:33;101571.53;;;24.11;36.37
70015;BME280;57358;51.094;6.760;2022-09-01T10:19:04;101559.81;;;24.39;36.83
70015;BME280;57358;51.094;6.760;2022-09-01T10:21:39;101553.75;;;24.37;37.63
70015;BME280;57358;51.094;6.760;2022-09-01T10:24:31;101568.34;;;24.25;36.71
70015;BME280;57358;51.094;6.760;2022-09-01T10:27:02;101558.38;;;24.45;37.32
70015;BME280;57358;51.094;6.760;2022-09-01T10:29:48;101555.97;;;24.69;37.29
70015;BME280;57358;51.094;6.760;2022-09-01T10:32:41;101551.38;;;25.16;37.46
70015;BME280;57358;51.094;6.760;2022-09-01T10:35:32;101536.22;;;25.06;37.07
70015;BME280;57358;51.094;6.760;2022-09-01T10:38:04;101552.72;;;25.30;36.67
70015;BME280;57358;51.094;6.760;2022-09-01T10:40:36;101574.13;;;25.21;36.12
70015;BME280;57358;51.094;6.760;2022-09-01T10:43:42;101516.88;;;25.03;36.36
70015;BME280;57358;51.094;6.760;2022-09-01T10:49:19;101532.13;;;25.38;36.85
70015;BME280;57358;51.094;6.760;2022-09-01T10:51:54;101536.94;;;25.79;36.99
70015;BME280;57358;51.094;6.760;2022-09-01T10:57:10;101469.25;;;24.23;36.67
70015;BME280;57358;51.094;6.760;2022-09-01T10:59:53;101487.34;;;24.67;37.29
70015;BME280;57358;51.094;6.760;2022-09-01T11:02:23;101545.31;;;25.14;36.50
70015;BME280;57358;51.094;6.760;2022-09-01T11:07:32;101448.28;;;24.37;36.80
70015;BME280;57358;51.094;6.760;2022-09-01T11:13:22;101526.13;;;25.44;36.55
70015;BME280;57358;51.094;6.760;2022-09-01T11:15:52;101524.91;;;25.65;35.97
70015;BME280;57358;51.094;6.760;2022-09-01T11:18:27;101536.28;;;26.11;35.54
70015;BME280;57358;51.094;6.760;2022-09-01T11:21:13;101548.56;;;25.61;33.98
70015;BME280;57358;51.094;6.760;2022-09-01T11:23:40;101487.97;;;24.79;35.46
70015;BME280;57358;51.094;6.760;2022-09-01T11:29:02;101486.28;;;24.78;35.51
70015;BME280;57358;51.094;6.760;2022-09-01T11:31:34;101548.56;;;25.35;35.89
70015;BME280;57358;51.094;6.760;2022-09-01T11:36:58;101547.19;;;25.83;35.76
70015;BME280;57358;51.094;6.760;2022-09-01T11:39:35;101515.47;;;25.61;34.72
70015;BME280;57358;51.094;6.760;2022-09-01T11:42:12;101546.72;;;26.14;35.86
70015;BME280;57358;51.094;6.760;2022-09-01T11:44:48;101507.81;;;25.40;35.89
70015;BME280;57358;51.094;6.760;2022-09-01T11:47:23;101466.53;;;25.23;36.06
70015;BME280;57358;51.094;6.760;2022-09-01T11:49:55;101500.63;;;25.48;35.69
70015;BME280;57358;51.094;6.760;2022-09-01T11:52:28;101534.69;;;25.92;35.59
70015;BME280;57358;51.094;6.760;2022-09-01T11:54:57;101528.38;;;25.83;35.27
70015;BME280;57358;51.094;6.760;2022-09-01T11:57:36;101540.50;;;26.22;37.14
70015;BME280;57358;51.094;6.760;2022-09-01T12:00:09;101524.31;;;26.48;35.49
70015;BME280;57358;51.094;6.760;2022-09-01T12:02:45;101519.41;;;26.43;35.27
70015;BME280;57358;51.094;6.760;2022-09-01T12:05:41;101419.38;;;25.97;35.29
70015;BME280;57358;51.094;6.760;2022-09-01T12:08:16;101512.88;;;26.54;35.37
70015;BME280;57358;51.094;6.760;2022-09-01T12:10:49;101527.44;;;25.93;35.37
70015;BME280;57358;51.094;6.760;2022-09-01T12:13:23;101547.88;;;24.79;36.85
70015;BME280;57358;51.094;6.760;2022-09-01T12:15:59;101528.44;;;24.67;37.89
70015;BME280;57358;51.094;6.760;2022-09-01T12:18:46;101508.69;;;25.22;36.67
70015;BME280;57358;51.094;6.760;2022-09-01T12:23:45;101525.63;;;25.75;36.49
70015;BME280;57358;51.094;6.760;2022-09-01T12:26:16;101509.81;;;25.64;36.23
70015;BME280;57358;51.094;6.760;2022-09-01T12:28:45;101445.50;;;25.18;35.60
70015;BME280;57358;51.094;6.760;2022-09-01T12:31:17;101509.56;;;25.31;36.72
70015;BME280;57358;51.094;6.760;2022-09-01T12:33:45;101428.03;;;24.96;37.13
70015;BME280;57358;51.094;6.760;2022-09-01T12:38:39;101408.19;;;25.41;36.19
70015;BME280;57358;51.094;6.760;2022-09-01T12:41:32;101476.00;;;26.38;36.10
70015;BME280;57358;51.094;6.760;2022-09-01T12:46:57;101490.31;;;26.55;35.84
70015;BME280;57358;51.094;6.760;2022-09-01T12:49:33;101293.13;;;25.28;36.62
70015;BME280;57358;51.094;6.760;2022-09-01T12:52:16;101506.03;;;26.93;36.38
70015;BME280;57358;51.094;6.760;2022-09-01T12:54:47;101438.19;;;26.81;35.08
70015;BME280;57358;51.094;6.760;2022-09-01T12:57:37;101508.22;;;26.73;34.85
70015;BME280;57358;51.094;6.760;2022-09-01T13:02:42;101450.31;;;27.01;34.17
70015;BME280;57358;51.094;6.760;2022-09-01T13:05:45;101497.78;;;27.43;34.89
70015;BME280;57358;51.094;6.760;2022-09-01T13:08:19;101487.00;;;27.43;33.98
70015;BME280;57358;51.094;6.760;2022-09-01T13:10:54;101462.72;;;27.43;34.27
70015;BME280;57358;51.094;6.760;2022-09-01T13:13:22;101485.84;;;27.05;35.10
70015;BME280;57358;51.094;6.760;2022-09-01T13:15:52;101487.03;;;26.19;36.08
70015;BME280;57358;51.094;6.760;2022-09-01T13:18:20;101502.22;;;26.28;36.47
70015;BME280;57358;51.094;6.760;2022-09-01T13:20:48;101443.19;;;25.23;37.04
70015;BME280;57358;51.094;6.760;2022-09-01T13:23:16;101498.19;;;25.63;37.11
70015;BME280;57358;51.094;6.760;2022-09-01T13:25:42;101463.22;;;25.29;37.66
70015;BME280;57358;51.094;6.760;2022-09-01T13:28:15;101437.28;;;25.20;37.66
70015;BME280;57358;51.094;6.760;2022-09-01T13:30:44;101506.00;;;25.22;37.77
70015;BME280;57358;51.094;6.760;2022-09-01T13:33:12;101504.97;;;24.87;37.61
70015;BME280;57358;51.094;6.760;2022-09-01T13:35:48;101502.47;;;24.86;38.40
70015;BME280;57358;51.094;6.760;2022-09-01T13:38:15;101505.53;;;24.73;39.27
70015;BME280;57358;51.094;6.760;2022-09-01T13:40:43;101455.44;;;24.46;38.73
70015;BME280;57358;51.094;6.760;2022-09-01T13:43:12;101422.81;;;24.23;38.77
70015;BME280;57358;51.094;6.760;2022-09-01T13:45:41;101450.50;;;24.95;39.03
70015;BME280;57358;51.094;6.760;2022-09-01T13:48:10;101450.34;;;24.97;38.35
70015;BME280;57358;51.094;6.760;2022-09-01T13:50:42;101484.97;;;25.00;38.08
70015;BME280;57358;51.094;6.760;2022-09-01T13:53:29;101491.19;;;25.00;38.39
70015;BME280;57358;51.094;6.760;2022-09-01T13:55:55;101488.41;;;25.10;38.71
70015;BME280;57358;51.094;6.760;2022-09-01T13:58:23;101472.06;;;25.03;39.26
70015;BME280;57358;51.094;6.760;2022-09-01T14:00:49;101387.75;;;24.70;38.81
70015;BME280;57358;51.094;6.760;2022-09-01T14:03:20;101403.50;;;24.91;39.04
70015;BME280;57358;51.094;6.760;2022-09-01T14:05:48;101468.78;;;25.62;38.78
70015;BME280;57358;51.094;6.760;2022-09-01T14:08:17;101387.03;;;25.38;39.06
70015;BME280;57358;51.094;6.760;2022-09-01T14:10:48;101452.25;;;26.42;38.75
70015;BME280;57358;51.094;6.760;2022-09-01T14:13:17;101451.16;;;26.85;37.59
70015;BME280;57358;51.094;6.760;2022-09-01T14:15:44;101453.50;;;26.97;36.98
70015;BME280;57358;51.094;6.760;2022-09-01T14:18:12;101316.50;;;26.12;36.83
70015;BME280;57358;51.094;6.760;2022-09-01T14:20:42;101386.16;;;26.23;36.59